sensor_id;sensor_type;location;lat;lon;timestamp;temperature;humidity
59881;DHT22;45751;51.380;10.326;2023-04-23T00:00:23;15.90;63.20
59881;DHT22;45751;51.380;10.326;2023-04-23T00:02:52;15.80;63.30
59881;DHT22;45751;51.380;10.326;2023-04-23T00:05:20;15.80;63.60
59881;DHT22;45751;51.380;10.326;2023-04-23T00:07:49;15.80;63.60
59881;DHT22;45751;51.380;10.326;2023-04-23T00:10:15;15.80;63.80
59881;DHT22;45751;51.380;10.326;2023-04-23T00:12:43;15.80;64.10
59881;DHT22;45751;51.380;10.326;2023-04-23T00:15:11;15.70;64.20
59881;DHT22;45751;51.380;10.326;2023-04-23T00:17:38;15.70;64.40
59881;DHT22;45751;51.380;10.326;2023-04-23T00:20:06;15.70;64.80
59881;DHT22;45751;51.380;10.326;2023-04-23T00:22:33;15.70;64.90
59881;DHT22;45751;51.380;10.326;2023-04-23T00:25:00;15.70;64.90
59881;DHT22;45751;51.380;10.326;2023-04-23T00:27:27;15.70;65.20
59881;DHT22;45751;51.380;10.326;2023-04-23T00:29:54;15.70;65.40
59881;DHT22;45751;51.380;10.326;2023-04-23T00:32:21;15.60;65.70
59881;DHT22;45751;51.380;10.326;2023-04-23T00:34:48;15.60;66.40
59881;DHT22;45751;51.380;10.326;2023-04-23T00:37:15;15.60;66.50
59881;DHT22;45751;51.380;10.326;2023-04-23T00:39:42;15.60;67.20
59881;DHT22;45751;51.380;10.326;2023-04-23T00:42:09;15.60;67.40
59881;DHT22;45751;51.380;10.326;2023-04-23T00:44:39;15.60;67.90
59881;DHT22;45751;51.380;10.326;2023-04-23T00:47:07;15.50;68.40
59881;DHT22;45751;51.380;10.326;2023-04-23T00:49:35;15.50;69.10
59881;DHT22;45751;51.380;10.326;2023-04-23T00:52:03;15.40;69.60
59881;DHT22;45751;51.380;10.326;2023-04-23T00:54:29;15.40;69.90
59881;DHT22;45751;51.380;10.326;2023-04-23T00:56:57;15.40;70.30
59881;DHT22;45751;51.380;10.326;2023-04-23T00:59:26;15.40;70.80
59881;DHT22;45751;51.380;10.326;2023-04-23T01:01:53;15.30;70.90
59881;DHT22;45751;51.380;10.326;2023-04-23T01:04:21;15.30;71.20
59881;DHT22;45751;51.380;10.326;2023-04-23T01:06:51;15.20;71.70
59881;DHT22;45751;51.380;10.326;2023-04-23T01:09:19;15.10;72.00
59881;DHT22;45751;51.380;10.326;2023-04-23T01:11:48;15.20;72.70
59881;DHT22;45751;51.380;10.326;2023-04-23T01:14:16;15.20;73.30
59881;DHT22;45751;51.380;10.326;2023-04-23T01:16:43;15.00;74.50
59881;DHT22;45751;51.380;10.326;2023-04-23T01:19:10;15.10;75.60
59881;DHT22;45751;51.380;10.326;2023-04-23T01:21:38;15.10;76.00
59881;DHT22;45751;51.380;10.326;2023-04-23T01:24:09;15.00;76.20
59881;DHT22;45751;51.380;10.326;2023-04-23T01:26:38;15.00;76.60
59881;DHT22;45751;51.380;10.326;2023-04-23T01:29:06;14.90;77.00
59881;DHT22;45751;51.380;10.326;2023-04-23T01:31:33;14.90;77.70
59881;DHT22;45751;51.380;10.326;2023-04-23T01:34:00;14.80;78.00
59881;DHT22;45751;51.380;10.326;2023-04-23T01:36:28;14.80;78.60
59881;DHT22;45751;51.380;10.326;2023-04-23T01:38:57;14.80;79.40
59881;DHT22;45751;51.380;10.326;2023-04-23T01:41:24;14.80;80.20
59881;DHT22;45751;51.380;10.326;2023-04-23T01:43:51;14.70;80.80
59881;DHT22;45751;51.380;10.326;2023-04-23T01:46:19;14.70;81.80
59881;DHT22;45751;51.380;10.326;2023-04-23T01:48:47;14.70;82.20
59881;DHT22;45751;51.380;10.326;2023-04-23T01:51:14;14.70;82.80
59881;DHT22;45751;51.380;10.326;2023-04-23T01:53:40;14.60;83.70
59881;DHT22;45751;51.380;10.326;2023-04-23T01:56:08;14.60;84.70
59881;DHT22;45751;51.380;10.326;2023-04-23T01:58:36;14.60;85.80
59881;DHT22;45751;51.380;10.326;2023-04-23T02:01:03;14.50;87.20
59881;DHT22;45751;51.380;10.326;2023-04-23T02:03:30;14.50;87.90
59881;DHT22;45751;51.380;10.326;2023-04-23T02:06:00;14.40;89.00
59881;DHT22;45751;51.380;10.326;2023-04-23T02:08:27;14.40;90.00
59881;DHT22;45751;51.380;10.326;2023-04-23T02:10:54;14.40;90.60
59881;DHT22;45751;51.380;10.326;2023-04-23T02:13:21;14.30;91.00
59881;DHT22;45751;51.380;10.326;2023-04-23T02:15:48;14.30;91.10
59881;DHT22;45751;51.380;10.326;2023-04-23T02:18:15;14.30;91.50
59881;DHT22;45751;51.380;10.326;2023-04-23T02:20:42;14.30;91.80
59881;DHT22;45751;51.380;10.326;2023-04-23T02:23:09;14.30;92.10
59881;DHT22;45751;51.380;10.326;2023-04-23T02:25:36;14.20;92.40
59881;DHT22;45751;51.380;10.326;2023-04-23T02:28:05;14.20;93.00
59881;DHT22;45751;51.380;10.326;2023-04-23T02:30:34;14.20;93.70
59881;DHT22;45751;51.380;10.326;2023-04-23T02:33:01;14.20;95.80
59881;DHT22;45751;51.380;10.326;2023-04-23T02:35:29;14.20;95.80
59881;DHT22;45751;51.380;10.326;2023-04-23T02:37:57;14.20;95.50
59881;DHT22;45751;51.380;10.326;2023-04-23T02:40:24;14.10;96.80
59881;DHT22;45751;51.380;10.326;2023-04-23T02:42:50;14.10;97.70
59881;DHT22;45751;51.380;10.326;2023-04-23T02:45:17;14.10;97.20
59881;DHT22;45751;51.380;10.326;2023-04-23T02:47:44;14.10;97.40
59881;DHT22;45751;51.380;10.326;2023-04-23T02:50:11;14.00;97.40
59881;DHT22;45751;51.380;10.326;2023-04-23T02:52:38;14.00;97.60
59881;DHT22;45751;51.380;10.326;2023-04-23T02:55:06;13.90;98.90
59881;DHT22;45751;51.380;10.326;2023-04-23T02:57:33;13.90;99.50
59881;DHT22;45751;51.380;10.326;2023-04-23T03:00:00;13.90;99.90
59881;DHT22;45751;51.380;10.326;2023-04-23T03:02:33;13.80;99.90
59881;DHT22;45751;51.380;10.326;2023-04-23T03:05:01;13.80;99.90
59881;DHT22;45751;51.380;10.326;2023-04-23T03:07:28;13.80;99.90
59881;DHT22;45751;51.380;10.326;2023-04-23T03:09:56;13.70;99.90
59881;DHT22;45751;51.380;10.326;2023-04-23T03:12:24;13.70;99.90
59881;DHT22;45751;51.380;10.326;2023-04-23T03:14:51;13.70;99.90
59881;DHT22;45751;51.380;10.326;2023-04-23T03:17:18;13.80;99.90
59881;DHT22;45751;51.380;10.326;2023-04-23T03:19:46;13.70;99.90
59881;DHT22;45751;51.380;10.326;2023-04-23T03:22:13;13.60;99.90
59881;DHT22;45751;51.380;10.326;2023-04-23T03:24:40;13.60;99.90
59881;DHT22;45751;51.380;10.326;2023-04-23T03:27:08;13.60;99.90
59881;DHT22;45751;51.380;10.326;2023-04-23T03:29:35;13.50;99.90
59881;DHT22;45751;51.380;10.326;2023-04-23T03:32:01;13.50;99.90
59881;DHT22;45751;51.380;10.326;2023-04-23T03:34:30;13.50;99.90
59881;DHT22;45751;51.380;10.326;2023-04-23T03:36:57;13.50;99.90
59881;DHT22;45751;51.380;10.326;2023-04-23T03:39:24;13.40;99.90
59881;DHT22;45751;51.380;10.326;2023-04-23T03:41:53;13.40;99.90
59881;DHT22;45751;51.380;10.326;2023-04-23T03:44:24;13.40;99.90
59881;DHT22;45751;51.380;10.326;2023-04-23T03:46:51;13.30;99.90
59881;DHT22;45751;51.380;10.326;2023-04-23T03:49:19;13.30;99.90
59881;DHT22;45751;51.380;10.326;2023-04-23T03:51:46;13.30;99.90
59881;DHT22;45751;51.380;10.326;2023-04-23T03:54:14;13.30;99.90
59881;DHT22;45751;51.380;10.326;2023-04-23T03:56:53;13.20;99.90
59881;DHT22;45751;51.380;10.326;2023-04-23T03:59:26;13.20;99.90
59881;DHT22;45751;51.380;10.326;2023-04-23T04:01:57;13.20;99.90
59881;DHT22;45751;51.380;10.326;2023-04-23T04:04:25;13.20;99.90
59881;DHT22;45751;51.380;10.326;2023-04-23T04:06:54;13.20;99.90
59881;DHT22;45751;51.380;10.326;2023-04-23T04:09:25;13.20;99.90
59881;DHT22;45751;51.380;10.326;2023-04-23T04:11:53;13.20;99.90
59881;DHT22;45751;51.380;10.326;2023-04-23T04:14:21;13.20;99.90
59881;DHT22;45751;51.380;10.326;2023-04-23T04:16:48;13.10;99.90
59881;DHT22;45751;51.380;10.326;2023-04-23T04:19:15;13.10;99.90
59881;DHT22;45751;51.380;10.326;2023-04-23T04:21:42;13.10;99.90
59881;DHT22;45751;51.380;10.326;2023-04-23T04:24:08;13.10;99.90
59881;DHT22;45751;51.380;10.326;2023-04-23T04:26:37;13.10;99.90
59881;DHT22;45751;51.380;10.326;2023-04-23T04:29:03;13.10;99.90
59881;DHT22;45751;51.380;10.326;2023-04-23T04:31:31;13.10;99.90
59881;DHT22;45751;51.380;10.326;2023-04-23T04:33:58;13.00;99.90
59881;DHT22;45751;51.380;10.326;2023-04-23T04:36:24;12.90;99.90
59881;DHT22;45751;51.380;10.326;2023-04-23T04:38:52;12.70;99.90
59881;DHT22;45751;51.380;10.326;2023-04-23T04:41:22;12.60;99.90
59881;DHT22;45751;51.380;10.326;2023-04-23T04:43:51;12.40;99.90
59881;DHT22;45751;51.380;10.326;2023-04-23T04:46:18;12.20;99.90
59881;DHT22;45751;51.380;10.326;2023-04-23T04:48:48;12.10;99.90
59881;DHT22;45751;51.380;10.326;2023-04-23T04:51:15;11.90;99.90
59881;DHT22;45751;51.380;10.326;2023-04-23T04:53:42;11.80;99.90
59881;DHT22;45751;51.380;10.326;2023-04-23T04:56:09;11.70;99.90
59881;DHT22;45751;51.380;10.326;2023-04-23T04:58:36;11.70;99.90
59881;DHT22;45751;51.380;10.326;2023-04-23T05:01:03;11.60;99.90
59881;DHT22;45751;51.380;10.326;2023-04-23T05:03:31;11.60;99.90
59881;DHT22;45751;51.380;10.326;2023-04-23T05:05:58;11.50;99.90
59881;DHT22;45751;51.380;10.326;2023-04-23T05:08:25;11.50;99.90
59881;DHT22;45751;51.380;10.326;2023-04-23T05:10:52;11.50;99.90
59881;DHT22;45751;51.380;10.326;2023-04-23T05:13:22;11.50;99.90
59881;DHT22;45751;51.380;10.326;2023-04-23T05:15:48;11.30;99.90
59881;DHT22;45751;51.380;10.326;2023-04-23T05:18:16;11.50;99.90
59881;DHT22;45751;51.380;10.326;2023-04-23T05:20:42;11.50;99.90
59881;DHT22;45751;51.380;10.326;2023-04-23T05:23:09;11.50;99.90
59881;DHT22;45751;51.380;10.326;2023-04-23T05:25:37;11.50;99.90
59881;DHT22;45751;51.380;10.326;2023-04-23T05:28:03;11.50;99.90
59881;DHT22;45751;51.380;10.326;2023-04-23T05:30:30;11.50;99.90
59881;DHT22;45751;51.380;10.326;2023-04-23T05:32:57;11.50;99.90
59881;DHT22;45751;51.380;10.326;2023-04-23T05:35:24;11.60;99.90
59881;DHT22;45751;51.380;10.326;2023-04-23T05:37:51;11.50;99.90
59881;DHT22;45751;51.380;10.326;2023-04-23T05:40:18;11.50;99.90
59881;DHT22;45751;51.380;10.326;2023-04-23T05:42:45;11.50;99.90
59881;DHT22;45751;51.380;10.326;2023-04-23T05:45:12;11.50;99.90
59881;DHT22;45751;51.380;10.326;2023-04-23T05:47:39;11.40;99.90
59881;DHT22;45751;51.380;10.326;2023-04-23T05:50:06;11.60;99.90
59881;DHT22;45751;51.380;10.326;2023-04-23T05:52:33;11.60;99.90
59881;DHT22;45751;51.380;10.326;2023-04-23T05:55:03;11.60;99.90
59881;DHT22;45751;51.380;10.326;2023-04-23T05:57:30;11.60;99.90
59881;DHT22;45751;51.380;10.326;2023-04-23T05:59:56;11.50;99.90
59881;DHT22;45751;51.380;10.326;2023-04-23T06:02:23;11.60;99.90
59881;DHT22;45751;51.380;10.326;2023-04-23T06:04:51;11.60;99.90
59881;DHT22;45751;51.380;10.326;2023-04-23T06:07:18;11.60;99.90
59881;DHT22;45751;51.380;10.326;2023-04-23T06:09:45;11.60;99.90
59881;DHT22;45751;51.380;10.326;2023-04-23T06:12:12;11.60;99.90
59881;DHT22;45751;51.380;10.326;2023-04-23T06:14:39;11.50;99.90
59881;DHT22;45751;51.380;10.326;2023-04-23T06:17:06;11.50;99.90
59881;DHT22;45751;51.380;10.326;2023-04-23T06:19:33;11.50;99.90
59881;DHT22;45751;51.380;10.326;2023-04-23T06:22:00;11.50;99.90
59881;DHT22;45751;51.380;10.326;2023-04-23T06:24:27;11.50;99.90
59881;DHT22;45751;51.380;10.326;2023-04-23T06:26:54;11.50;99.90
59881;DHT22;45751;51.380;10.326;2023-04-23T06:29:23;11.50;99.90
59881;DHT22;45751;51.380;10.326;2023-04-23T06:32:01;11.50;99.90
59881;DHT22;45751;51.380;10.326;2023-04-23T06:34:28;11.60;99.90
59881;DHT22;45751;51.380;10.326;2023-04-23T06:36:55;11.60;99.90
59881;DHT22;45751;51.380;10.326;2023-04-23T06:39:22;11.60;99.90
59881;DHT22;45751;51.380;10.326;2023-04-23T06:41:48;11.60;99.90
59881;DHT22;45751;51.380;10.326;2023-04-23T06:44:22;11.60;99.90
59881;DHT22;45751;51.380;10.326;2023-04-23T06:46:52;11.70;99.90
59881;DHT22;45751;51.380;10.326;2023-04-23T06:49:18;11.60;99.90
59881;DHT22;45751;51.380;10.326;2023-04-23T06:51:45;11.70;99.90
59881;DHT22;45751;51.380;10.326;2023-04-23T06:54:14;11.70;99.90
59881;DHT22;45751;51.380;10.326;2023-04-23T06:56:41;11.70;99.90
59881;DHT22;45751;51.380;10.326;2023-04-23T06:59:08;11.70;99.90
59881;DHT22;45751;51.380;10.326;2023-04-23T07:01:43;11.70;99.90
59881;DHT22;45751;51.380;10.326;2023-04-23T07:04:10;11.60;99.90
59881;DHT22;45751;51.380;10.326;2023-04-23T07:06:37;11.60;99.90
59881;DHT22;45751;51.380;10.326;2023-04-23T07:09:04;11.60;99.90
59881;DHT22;45751;51.380;10.326;2023-04-23T07:11:31;11.70;99.90
59881;DHT22;45751;51.380;10.326;2023-04-23T07:14:00;11.70;99.90
59881;DHT22;45751;51.380;10.326;2023-04-23T07:16:27;11.70;99.90
59881;DHT22;45751;51.380;10.326;2023-04-23T07:18:58;11.70;99.90
59881;DHT22;45751;51.380;10.326;2023-04-23T07:21:27;11.70;99.90
59881;DHT22;45751;51.380;10.326;2023-04-23T07:23:56;11.70;99.90
59881;DHT22;45751;51.380;10.326;2023-04-23T07:26:25;11.70;99.90
59881;DHT22;45751;51.380;10.326;2023-04-23T07:28:53;11.70;99.90
59881;DHT22;45751;51.380;10.326;2023-04-23T07:31:20;11.80;99.90
59881;DHT22;45751;51.380;10.326;2023-04-23T07:33:48;11.80;99.90
59881;DHT22;45751;51.380;10.326;2023-04-23T07:36:15;11.80;97.60
59881;DHT22;45751;51.380;10.326;2023-04-23T07:38:42;11.70;97.70
59881;DHT22;45751;51.380;10.326;2023-04-23T07:41:09;11.80;97.40
59881;DHT22;45751;51.380;10.326;2023-04-23T07:43:35;11.90;96.90
59881;DHT22;45751;51.380;10.326;2023-04-23T07:46:02;11.90;96.90
59881;DHT22;45751;51.380;10.326;2023-04-23T07:48:30;12.00;95.60
59881;DHT22;45751;51.380;10.326;2023-04-23T07:50:57;12.00;95.80
59881;DHT22;45751;51.380;10.326;2023-04-23T07:53:24;12.00;94.70
59881;DHT22;45751;51.380;10.326;2023-04-23T07:55:51;12.10;94.70
59881;DHT22;45751;51.380;10.326;2023-04-23T07:58:18;12.10;94.30
59881;DHT22;45751;51.380;10.326;2023-04-23T08:00:44;12.10;93.50
59881;DHT22;45751;51.380;10.326;2023-04-23T08:03:12;12.10;93.60
59881;DHT22;45751;51.380;10.326;2023-04-23T08:05:39;12.10;91.70
59881;DHT22;45751;51.380;10.326;2023-04-23T08:08:07;12.10;93.20
59881;DHT22;45751;51.380;10.326;2023-04-23T08:10:34;12.10;90.50
59881;DHT22;45751;51.380;10.326;2023-04-23T08:13:01;12.20;91.10
59881;DHT22;45751;51.380;10.326;2023-04-23T08:15:28;12.20;90.10
59881;DHT22;45751;51.380;10.326;2023-04-23T08:17:55;12.20;90.20
59881;DHT22;45751;51.380;10.326;2023-04-23T08:20:22;12.20;90.50
59881;DHT22;45751;51.380;10.326;2023-04-23T08:22:50;12.30;87.70
59881;DHT22;45751;51.380;10.326;2023-04-23T08:25:19;12.30;88.20
59881;DHT22;45751;51.380;10.326;2023-04-23T08:27:46;12.30;89.70
59881;DHT22;45751;51.380;10.326;2023-04-23T08:30:13;12.40;88.90
59881;DHT22;45751;51.380;10.326;2023-04-23T08:32:41;12.40;84.00
59881;DHT22;45751;51.380;10.326;2023-04-23T08:35:08;12.40;83.90
59881;DHT22;45751;51.380;10.326;2023-04-23T08:37:35;12.40;83.70
59881;DHT22;45751;51.380;10.326;2023-04-23T08:40:02;12.50;82.20
59881;DHT22;45751;51.380;10.326;2023-04-23T08:42:38;12.50;80.70
59881;DHT22;45751;51.380;10.326;2023-04-23T08:45:07;12.50;80.70
59881;DHT22;45751;51.380;10.326;2023-04-23T08:47:34;12.60;81.70
59881;DHT22;45751;51.380;10.326;2023-04-23T08:50:03;12.60;80.80
59881;DHT22;45751;51.380;10.326;2023-04-23T08:52:33;12.60;80.70
59881;DHT22;45751;51.380;10.326;2023-04-23T08:55:03;12.60;81.60
59881;DHT22;45751;51.380;10.326;2023-04-23T08:57:33;12.70;84.00
59881;DHT22;45751;51.380;10.326;2023-04-23T09:00:02;12.70;85.00
59881;DHT22;45751;51.380;10.326;2023-04-23T09:02:33;12.70;86.20
59881;DHT22;45751;51.380;10.326;2023-04-23T09:05:04;12.70;84.50
59881;DHT22;45751;51.380;10.326;2023-04-23T09:07:32;12.80;83.80
59881;DHT22;45751;51.380;10.326;2023-04-23T09:10:01;12.80;84.80
59881;DHT22;45751;51.380;10.326;2023-04-23T09:12:29;12.90;85.60
59881;DHT22;45751;51.380;10.326;2023-04-23T09:14:56;12.90;80.90
59881;DHT22;45751;51.380;10.326;2023-04-23T09:17:23;12.90;80.30
59881;DHT22;45751;51.380;10.326;2023-04-23T09:19:54;12.90;81.00
59881;DHT22;45751;51.380;10.326;2023-04-23T09:25:12;13.00;80.90
59881;DHT22;45751;51.380;10.326;2023-04-23T09:27:39;13.10;81.00
59881;DHT22;45751;51.380;10.326;2023-04-23T09:30:08;13.10;78.30
59881;DHT22;45751;51.380;10.326;2023-04-23T09:32:41;13.10;78.50
59881;DHT22;45751;51.380;10.326;2023-04-23T09:35:10;13.20;80.70
59881;DHT22;45751;51.380;10.326;2023-04-23T09:37:40;13.20;81.10
59881;DHT22;45751;51.380;10.326;2023-04-23T09:40:08;13.30;79.30
59881;DHT22;45751;51.380;10.326;2023-04-23T09:42:36;13.30;77.00
59881;DHT22;45751;51.380;10.326;2023-04-23T09:45:05;13.30;75.00
59881;DHT22;45751;51.380;10.326;2023-04-23T09:47:53;13.40;73.50
59881;DHT22;45751;51.380;10.326;2023-04-23T09:50:34;13.40;74.40
59881;DHT22;45751;51.380;10.326;2023-04-23T09:53:09;13.50;75.30
59881;DHT22;45751;51.380;10.326;2023-04-23T09:55:38;13.50;75.30
59881;DHT22;45751;51.380;10.326;2023-04-23T09:58:10;13.50;73.30
59881;DHT22;45751;51.380;10.326;2023-04-23T10:00:38;13.60;71.50
59881;DHT22;45751;51.380;10.326;2023-04-23T10:03:06;13.50;72.90
59881;DHT22;45751;51.380;10.326;2023-04-23T10:05:41;13.60;70.70
59881;DHT22;45751;51.380;10.326;2023-04-23T10:08:12;13.70;71.80
59881;DHT22;45751;51.380;10.326;2023-04-23T10:10:40;13.70;72.90
59881;DHT22;45751;51.380;10.326;2023-04-23T10:13:27;13.80;70.40
59881;DHT22;45751;51.380;10.326;2023-04-23T10:15:54;13.80;71.30
59881;DHT22;45751;51.380;10.326;2023-04-23T10:18:31;13.90;73.70
59881;DHT22;45751;51.380;10.326;2023-04-23T10:21:00;13.90;70.40
59881;DHT22;45751;51.380;10.326;2023-04-23T10:23:28;14.00;70.20
59881;DHT22;45751;51.380;10.326;2023-04-23T10:25:58;14.00;70.20
59881;DHT22;45751;51.380;10.326;2023-04-23T10:28:28;14.10;70.40
59881;DHT22;45751;51.380;10.326;2023-04-23T10:30:58;14.10;69.30
59881;DHT22;45751;51.380;10.326;2023-04-23T10:33:27;14.20;69.40
59881;DHT22;45751;51.380;10.326;2023-04-23T10:36:08;14.20;67.60
59881;DHT22;45751;51.380;10.326;2023-04-23T10:38:35;14.20;64.40
59881;DHT22;45751;51.380;10.326;2023-04-23T10:41:20;14.30;65.30
59881;DHT22;45751;51.380;10.326;2023-04-23T10:43:52;14.30;67.10
59881;DHT22;45751;51.380;10.326;2023-04-23T10:46:32;14.40;66.60
59881;DHT22;45751;51.380;10.326;2023-04-23T10:49:14;14.40;66.60
59881;DHT22;45751;51.380;10.326;2023-04-23T10:51:45;14.50;67.80
59881;DHT22;45751;51.380;10.326;2023-04-23T10:54:18;14.50;68.80
59881;DHT22;45751;51.380;10.326;2023-04-23T10:56:45;14.60;66.60
59881;DHT22;45751;51.380;10.326;2023-04-23T10:59:23;14.60;67.00
59881;DHT22;45751;51.380;10.326;2023-04-23T11:01:50;14.70;68.50
59881;DHT22;45751;51.380;10.326;2023-04-23T11:04:30;14.70;67.30
59881;DHT22;45751;51.380;10.326;2023-04-23T11:07:04;14.90;67.60
59881;DHT22;45751;51.380;10.326;2023-04-23T11:09:47;14.90;65.10
59881;DHT22;45751;51.380;10.326;2023-04-23T11:14:51;15.10;64.20
59881;DHT22;45751;51.380;10.326;2023-04-23T11:20:17;15.20;64.30
59881;DHT22;45751;51.380;10.326;2023-04-23T11:22:45;15.20;62.70
59881;DHT22;45751;51.380;10.326;2023-04-23T11:25:25;15.30;62.70
59881;DHT22;45751;51.380;10.326;2023-04-23T11:27:55;15.30;63.10
59881;DHT22;45751;51.380;10.326;2023-04-23T11:30:27;15.40;64.30
59881;DHT22;45751;51.380;10.326;2023-04-23T11:32:56;15.40;62.60
59881;DHT22;45751;51.380;10.326;2023-04-23T11:35:25;15.50;62.80
59881;DHT22;45751;51.380;10.326;2023-04-23T11:37:59;15.50;61.20
59881;DHT22;45751;51.380;10.326;2023-04-23T11:40:26;15.50;61.00
59881;DHT22;45751;51.380;10.326;2023-04-23T11:42:55;15.50;61.10
59881;DHT22;45751;51.380;10.326;2023-04-23T11:45:27;15.50;60.40
59881;DHT22;45751;51.380;10.326;2023-04-23T11:47:56;15.60;61.10
59881;DHT22;45751;51.380;10.326;2023-04-23T11:50:29;15.70;60.00
59881;DHT22;45751;51.380;10.326;2023-04-23T11:53:05;15.80;60.50
59881;DHT22;45751;51.380;10.326;2023-04-23T11:55:35;15.90;59.00
59881;DHT22;45751;51.380;10.326;2023-04-23T11:58:03;16.00;60.10
59881;DHT22;45751;51.380;10.326;2023-04-23T12:00:30;16.10;60.20
59881;DHT22;45751;51.380;10.326;2023-04-23T12:03:03;16.20;59.30
59881;DHT22;45751;51.380;10.326;2023-04-23T12:05:34;16.30;59.70
59881;DHT22;45751;51.380;10.326;2023-04-23T12:08:19;16.40;59.00
59881;DHT22;45751;51.380;10.326;2023-04-23T12:10:49;16.40;59.80
59881;DHT22;45751;51.380;10.326;2023-04-23T12:13:18;16.50;59.20
59881;DHT22;45751;51.380;10.326;2023-04-23T12:15:51;16.60;58.20
59881;DHT22;45751;51.380;10.326;2023-04-23T12:18:19;16.70;57.50
59881;DHT22;45751;51.380;10.326;2023-04-23T12:20:45;16.70;56.70
59881;DHT22;45751;51.380;10.326;2023-04-23T12:23:12;16.80;58.30
59881;DHT22;45751;51.380;10.326;2023-04-23T12:25:39;16.90;58.20
59881;DHT22;45751;51.380;10.326;2023-04-23T12:28:08;16.90;58.00
59881;DHT22;45751;51.380;10.326;2023-04-23T12:30:42;17.00;57.60
59881;DHT22;45751;51.380;10.326;2023-04-23T12:33:10;17.00;56.60
59881;DHT22;45751;51.380;10.326;2023-04-23T12:35:42;17.00;57.20
59881;DHT22;45751;51.380;10.326;2023-04-23T12:38:25;17.10;56.60
59881;DHT22;45751;51.380;10.326;2023-04-23T12:40:54;17.00;56.40
59881;DHT22;45751;51.380;10.326;2023-04-23T12:43:21;17.00;57.40
59881;DHT22;45751;51.380;10.326;2023-04-23T12:45:48;17.10;57.00
59881;DHT22;45751;51.380;10.326;2023-04-23T12:48:15;17.00;57.10
59881;DHT22;45751;51.380;10.326;2023-04-23T12:50:44;17.20;57.40
59881;DHT22;45751;51.380;10.326;2023-04-23T12:53:12;17.20;57.90
59881;DHT22;45751;51.380;10.326;2023-04-23T12:55:39;17.30;56.30
59881;DHT22;45751;51.380;10.326;2023-04-23T12:58:08;17.40;55.40
59881;DHT22;45751;51.380;10.326;2023-04-23T13:00:36;17.40;56.90
59881;DHT22;45751;51.380;10.326;2023-04-23T13:03:03;17.50;54.30
59881;DHT22;45751;51.380;10.326;2023-04-23T13:05:30;17.40;54.40
59881;DHT22;45751;51.380;10.326;2023-04-23T13:07:57;17.40;54.70
59881;DHT22;45751;51.380;10.326;2023-04-23T13:10:24;17.40;53.20
59881;DHT22;45751;51.380;10.326;2023-04-23T13:12:51;17.40;53.70
59881;DHT22;45751;51.380;10.326;2023-04-23T13:15:18;17.40;54.20
59881;DHT22;45751;51.380;10.326;2023-04-23T13:17:46;17.40;54.40
59881;DHT22;45751;51.380;10.326;2023-04-23T13:20:13;17.40;54.10
59881;DHT22;45751;51.380;10.326;2023-04-23T13:22:39;17.30;54.10
59881;DHT22;45751;51.380;10.326;2023-04-23T13:25:06;17.30;53.80
59881;DHT22;45751;51.380;10.326;2023-04-23T13:27:34;17.30;54.20
59881;DHT22;45751;51.380;10.326;2023-04-23T13:30:01;17.30;53.60
59881;DHT22;45751;51.380;10.326;2023-04-23T13:32:28;17.30;53.80
59881;DHT22;45751;51.380;10.326;2023-04-23T13:34:59;17.30;53.60
59881;DHT22;45751;51.380;10.326;2023-04-23T13:37:28;17.30;53.50
59881;DHT22;45751;51.380;10.326;2023-04-23T13:39:57;17.50;53.30
59881;DHT22;45751;51.380;10.326;2023-04-23T13:42:23;17.50;53.70
59881;DHT22;45751;51.380;10.326;2023-04-23T13:44:50;17.60;53.10
59881;DHT22;45751;51.380;10.326;2023-04-23T13:47:18;17.60;53.00
59881;DHT22;45751;51.380;10.326;2023-04-23T13:49:44;17.70;52.90
59881;DHT22;45751;51.380;10.326;2023-04-23T13:52:11;17.70;51.80
59881;DHT22;45751;51.380;10.326;2023-04-23T13:54:38;17.70;51.60
59881;DHT22;45751;51.380;10.326;2023-04-23T13:57:05;17.70;51.80
59881;DHT22;45751;51.380;10.326;2023-04-23T13:59:32;17.70;51.00
59881;DHT22;45751;51.380;10.326;2023-04-23T14:01:59;17.80;52.00
59881;DHT22;45751;51.380;10.326;2023-04-23T14:04:26;17.80;51.90
59881;DHT22;45751;51.380;10.326;2023-04-23T14:06:53;17.90;51.30
59881;DHT22;45751;51.380;10.326;2023-04-23T14:09:20;17.90;49.60
59881;DHT22;45751;51.380;10.326;2023-04-23T14:11:50;17.90;49.40
59881;DHT22;45751;51.380;10.326;2023-04-23T14:14:17;17.80;50.10
59881;DHT22;45751;51.380;10.326;2023-04-23T14:16:44;17.80;50.60
59881;DHT22;45751;51.380;10.326;2023-04-23T14:19:11;17.80;50.50
59881;DHT22;45751;51.380;10.326;2023-04-23T14:21:38;17.80;49.90
59881;DHT22;45751;51.380;10.326;2023-04-23T14:24:22;17.80;49.70
59881;DHT22;45751;51.380;10.326;2023-04-23T14:26:53;17.80;49.90
59881;DHT22;45751;51.380;10.326;2023-04-23T14:29:49;17.80;49.50
59881;DHT22;45751;51.380;10.326;2023-04-23T14:32:16;18.00;50.10
59881;DHT22;45751;51.380;10.326;2023-04-23T14:34:43;18.00;49.50
59881;DHT22;45751;51.380;10.326;2023-04-23T14:37:10;18.10;49.70
59881;DHT22;45751;51.380;10.326;2023-04-23T14:39:39;18.20;50.20
59881;DHT22;45751;51.380;10.326;2023-04-23T14:42:07;18.50;50.20
59881;DHT22;45751;51.380;10.326;2023-04-23T14:44:34;18.80;50.40
59881;DHT22;45751;51.380;10.326;2023-04-23T14:47:01;19.00;48.20
59881;DHT22;45751;51.380;10.326;2023-04-23T14:49:28;19.30;47.70
59881;DHT22;45751;51.380;10.326;2023-04-23T14:51:55;19.40;46.70
59881;DHT22;45751;51.380;10.326;2023-04-23T14:54:23;19.60;47.60
59881;DHT22;45751;51.380;10.326;2023-04-23T14:56:50;19.60;46.70
59881;DHT22;45751;51.380;10.326;2023-04-23T14:59:17;19.70;46.40
59881;DHT22;45751;51.380;10.326;2023-04-23T15:01:44;19.70;45.60
59881;DHT22;45751;51.380;10.326;2023-04-23T15:04:11;19.60;45.20
59881;DHT22;45751;51.380;10.326;2023-04-23T15:06:39;19.60;44.80
59881;DHT22;45751;51.380;10.326;2023-04-23T15:09:08;19.50;45.20
59881;DHT22;45751;51.380;10.326;2023-04-23T15:11:35;19.50;45.70
59881;DHT22;45751;51.380;10.326;2023-04-23T15:14:07;19.50;45.20
59881;DHT22;45751;51.380;10.326;2023-04-23T15:16:44;19.60;45.80
59881;DHT22;45751;51.380;10.326;2023-04-23T15:19:16;19.70;46.10
59881;DHT22;45751;51.380;10.326;2023-04-23T15:21:44;19.90;46.10
59881;DHT22;45751;51.380;10.326;2023-04-23T15:24:11;20.10;44.80
59881;DHT22;45751;51.380;10.326;2023-04-23T15:26:39;20.20;45.10
59881;DHT22;45751;51.380;10.326;2023-04-23T15:29:06;20.30;44.10
59881;DHT22;45751;51.380;10.326;2023-04-23T15:31:36;20.30;44.00